Time;durP1;ratioP1;P1;durP2;ratioP2;P2;SDS_P1;SDS_P2;PMS_P1;PMS_P2;Temp;Humidity;BMP_temperature;BMP_pressure;BME280_temperature;BME280_humidity;BME280_pressure;Samples;Min_cycle;Max_cycle;Signal;HPM_P1;HPM_P2
2021/12/28 00:00:17;;;;;;;36.13;18.42;;;;;;;-10.08;100.00;101700.98;1703532;82;21125;-80
2021/12/28 00:02:46;;;;;;;;;;;;;;;-10.01;100.00;101690.67;1697352;83;21579;-79
2021/12/28 00:05:14;;;;;;;36.80;15.95;;;;;;;-9.95;100.00;101681.17;1707959;84;20157;-78
2021/12/28 00:07:43;;;;;;;35.43;17.37;;;;;;;-9.90;100.00;101684.27;1707823;82;23806;-86
2021/12/28 00:10:14;;;;;;;32.42;15.28;;;;;;;-9.84;100.00;101683.16;1698287;82;21128;-86
2021/12/28 00:12:42;;;;;;;36.33;17.82;;;;;;;-9.79;100.00;101677.37;1685652;83;21020;-78
2021/12/28 00:15:32;;;;;;;33.73;17.05;;;;;;;-9.74;100.00;101673.32;1686777;84;21156;-78
2021/12/28 00:17:59;;;;;;;33.78;16.25;;;;;;;-9.69;100.00;101674.28;1673840;84;21586;-78
2021/12/28 00:20:28;;;;;;;35.80;17.50;;;;;;;-9.64;100.00;101665.57;1663509;84;21112;-79
2021/12/28 00:22:57;;;;;;;34.78;17.95;;;;;;;-9.59;100.00;101666.14;1674947;84;21065;-80
2021/12/28 00:25:24;;;;;;;30.80;17.62;;;;;;;-9.55;100.00;101663.28;1684727;84;21077;-77
2021/12/28 00:27:52;;;;;;;34.50;17.50;;;;;;;-9.52;100.00;101661.69;1677849;83;21077;-77
2021/12/28 00:30:21;;;;;;;34.48;16.50;;;;;;;-9.47;100.00;101662.19;1656388;84;21714;-82
2021/12/28 00:32:53;;;;;;;31.85;16.60;;;;;;;-9.42;100.00;101664.44;1662064;85;21107;-78
2021/12/28 00:35:18;;;;;;;32.35;14.80;;;;;;;-9.39;100.00;101665.75;1653908;84;21033;-78
2021/12/28 00:37:44;;;;;;;35.85;18.67;;;;;;;-9.35;100.00;101655.77;1665975;84;21195;-77
2021/12/28 00:40:12;;;;;;;32.10;16.05;;;;;;;-9.32;100.00;101661.30;1684129;83;21065;-78
2021/12/28 00:42:43;;;;;;;30.95;16.87;;;;;;;-9.27;100.00;101663.93;1681007;83;22132;-82
2021/12/28 00:45:09;;;;;;;29.48;17.30;;;;;;;-9.24;100.00;101668.64;1682822;84;21096;-77
2021/12/28 00:47:37;;;;;;;32.60;17.48;;;;;;;-9.20;100.00;101660.34;1654616;84;21364;-83
2021/12/28 00:50:05;;;;;;;29.55;16.02;;;;;;;-9.18;100.00;101662.05;1681032;83;21081;-83
2021/12/28 00:52:32;;;;;;;26.90;15.80;;;;;;;-9.14;100.00;101656.23;1637126;85;21060;-80
2021/12/28 00:54:59;;;;;;;26.37;15.63;;;;;;;-9.10;100.00;101656.77;1634715;86;21780;-79
2021/12/28 00:57:30;;;;;;;31.97;16.35;;;;;;;-9.07;100.00;101651.77;1634034;86;21030;-77
2021/12/28 00:59:57;;;;;;;33.63;16.35;;;;;;;-9.04;100.00;101645.55;1619727;86;21075;-78
2021/12/28 01:02:25;;;;;;;30.88;16.05;;;;;;;-9.01;100.00;101641.80;1668873;83;21057;-78
2021/12/28 01:04:54;;;;;;;29.15;16.52;;;;;;;-8.98;100.00;101629.27;1701838;83;21068;-78
2021/12/28 01:07:21;;;;;;;26.68;16.00;;;;;;;-8.93;100.00;101628.10;1694272;84;22195;-79
2021/12/28 01:09:49;;;;;;;28.07;15.10;;;;;;;-8.90;100.00;101631.55;1697227;82;21134;-76
2021/12/28 01:12:17;;;;;;;27.13;15.40;;;;;;;-8.86;100.00;101627.83;1675081;84;21048;-77
2021/12/28 01:14:46;;;;;;;28.05;14.47;;;;;;;-8.83;100.00;101623.70;1682701;84;21544;-78
2021/12/28 01:17:12;;;;;;;27.67;14.80;;;;;;;-8.80;100.00;101621.64;1698162;83;21649;-77
2021/12/28 01:19:40;;;;;;;28.98;15.83;;;;;;;-8.77;100.00;101620.46;1678066;83;21121;-77
2021/12/28 01:22:07;;;;;;;29.25;15.23;;;;;;;-8.75;100.00;101615.00;1688824;83;22031;-79
2021/12/28 01:24:39;;;;;;;28.73;15.55;;;;;;;-8.73;100.00;101609.58;1691589;84;21565;-78
2021/12/28 01:27:05;;;;;;;26.95;16.12;;;;;;;-8.72;100.00;101604.55;1686531;84;21081;-77
2021/12/28 01:29:33;;;;;;;26.20;14.75;;;;;;;-8.69;100.00;101597.45;1687131;84;21034;-76
2021/12/28 01:32:00;;;;;;;30.32;16.25;;;;;;;-8.69;100.00;101598.71;1684377;84;21155;-78
2021/12/28 01:34:27;;;;;;;29.05;16.82;;;;;;;-8.67;100.00;101592.02;1688691;84;21585;-77
2021/12/28 01:36:55;;;;;;;30.10;16.17;;;;;;;-8.65;100.00;101587.86;1692170;83;21127;-78
2021/12/28 01:39:22;;;;;;;29.18;16.25;;;;;;;-8.63;100.00;101584.97;1691015;83;21080;-78
2021/12/28 01:41:48;;;;;;;28.20;16.50;;;;;;;-8.60;100.00;101570.27;1681832;84;21550;-80
2021/12/28 01:44:15;;;;;;;29.77;16.17;;;;;;;-8.60;100.00;101565.22;1689676;83;21123;-77
2021/12/28 01:46:42;;;;;;;28.32;15.75;;;;;;;-8.59;100.00;101564.41;1690165;83;21590;-78
2021/12/28 01:49:10;;;;;;;29.67;16.77;;;;;;;-8.58;100.00;101569.48;1677838;84;21544;-77
2021/12/28 01:51:38;;;;;;;28.95;16.15;;;;;;;-8.57;100.00;101566.53;1688215;84;21064;-77
2021/12/28 01:54:06;;;;;;;28.40;15.55;;;;;;;-8.54;100.00;101564.49;1683871;83;21104;-79
2021/12/28 01:56:40;;;;;;;27.50;14.80;;;;;;;-8.52;100.00;101562.83;1693147;83;21143;-78
2021/12/28 01:59:10;;;;;;;24.12;14.35;;;;;;;-8.49;100.00;101560.38;1678384;83;21235;-78
2021/12/28 02:01:37;;;;;;;26.30;14.45;;;;;;;-8.48;100.00;101557.86;1683440;83;21116;-78
2021/12/28 02:04:24;;;;;;;24.43;13.55;;;;;;;-8.44;100.00;101563.79;1689808;84;21093;-77
2021/12/28 02:06:55;;;;;;;28.10;13.78;;;;;;;-8.41;100.00;101561.33;1628633;86;21094;-78
2021/12/28 02:09:26;;;;;;;28.12;14.87;;;;;;;-8.39;100.00;101560.95;1633607;86;21168;-83
2021/12/28 02:11:53;;;;;;;24.35;13.78;;;;;;;-8.36;100.00;101561.42;1635118;87;21115;-77
2021/12/28 02:14:22;;;;;;;23.40;12.90;;;;;;;-8.32;100.00;101556.45;1641276;86;21077;-78
2021/12/28 02:16:49;;;;;;;24.45;13.58;;;;;;;-8.30;100.00;101556.08;1664476;85;21469;-77
2021/12/28 02:19:18;;;;;;;26.10;13.85;;;;;;;-8.27;100.00;101562.42;1645562;85;21118;-77
2021/12/28 02:21:45;;;;;;;26.80;14.70;;;;;;;-8.24;100.00;101561.23;1633914;86;21690;-79
2021/12/28 02:24:12;;;;;;;27.30;13.62;;;;;;;-8.19;100.00;101561.70;1657284;85;21089;-79
2021/12/28 02:26:41;;;;;;;24.43;13.68;;;;;;;-8.16;100.00;101564.30;1662861;85;20995;-85
2021/12/28 02:29:08;;;;;;;24.35;13.78;;;;;;;-8.14;100.00;101564.77;1618871;87;21045;-84
2021/12/28 02:31:35;;;;;;;24.90;12.23;;;;;;;-8.11;100.00;101567.75;1618347;87;21605;-85
2021/12/28 02:34:03;;;;;;;22.48;13.58;;;;;;;-8.09;100.00;101578.75;1633560;86;21168;-81
2021/12/28 02:36:31;;;;;;;22.45;12.25;;;;;;;-8.06;100.00;101586.40;1619309;87;21525;-79
2021/12/28 02:38:59;;;;;;;23.70;13.83;;;;;;;-8.04;100.00;101587.25;1636163;86;21099;-78
2021/12/28 02:41:26;;;;;;;24.15;13.83;;;;;;;-8.02;100.00;101589.41;1652538;85;21047;-78
2021/12/28 02:44:02;;;;;;;28.47;15.70;;;;;;;-8.01;100.00;101584.79;1655886;85;21027;-78
2021/12/28 02:46:30;;;;;;;23.55;13.88;;;;;;;-7.99;100.00;101591.99;1643216;85;22014;-85
2021/12/28 02:48:57;;;;;;;27.35;15.60;;;;;;;-7.98;100.00;101590.30;1644745;85;21714;-78
2021/12/28 02:51:24;;;;;;;28.20;15.83;;;;;;;-7.95;100.00;101603.02;1636989;85;21113;-80
2021/12/28 02:53:51;;;;;;;26.60;14.85;;;;;;;-7.93;100.00;101611.48;1633971;87;21093;-81
2021/12/28 02:56:21;;;;;;;27.37;15.70;;;;;;;-7.93;100.00;101611.05;1608779;86;21083;-81
2021/12/28 02:58:51;;;;;;;24.10;15.23;;;;;;;-7.91;100.00;101613.60;1639052;87;21051;-78
2021/12/28 03:01:25;;;;;;;24.20;14.03;;;;;;;-7.92;100.00;101607.70;1635925;86;26301;-78
2021/12/28 03:03:58;;;;;;;24.98;14.65;;;;;;;-7.90;100.00;101611.94;1653213;85;21077;-77
2021/12/28 03:06:25;;;;;;;27.55;15.03;;;;;;;-7.89;100.00;101616.18;1647935;85;21133;-78
2021/12/28 03:08:56;;;;;;;27.80;15.53;;;;;;;-7.89;100.00;101613.22;1663789;84;21087;-82
2021/12/28 03:11:25;;;;;;;;;;;;;;;-7.88;100.00;101608.61;1696306;84;21164;-80
2021/12/28 03:13:56;;;;;;;30.60;16.65;;;;;;;-7.87;100.00;101603.13;1666812;84;20177;-77
2021/12/28 03:16:25;;;;;;;26.77;15.70;;;;;;;-7.87;100.00;101595.14;1691266;84;21180;-84
2021/12/28 03:18:53;;;;;;;26.20;15.10;;;;;;;-7.85;100.00;101600.22;1684829;83;21069;-78
2021/12/28 03:21:23;;;;;;;30.80;16.35;;;;;;;-7.85;100.00;101591.36;1677709;83;21030;-78
2021/12/28 03:23:52;;;;;;;31.27;16.70;;;;;;;-7.85;100.00;101579.56;1692602;83;21149;-79
2021/12/28 03:26:20;;;;;;;30.02;16.90;;;;;;;-7.86;100.00;101574.48;1692617;83;21101;-78
2021/12/28 03:28:49;;;;;;;28.92;16.95;;;;;;;-7.86;100.00;101570.69;1691472;83;21085;-78
2021/12/28 03:31:19;;;;;;;28.65;15.75;;;;;;;-7.87;100.00;101570.25;1693913;83;21591;-78
2021/12/28 03:33:51;;;;;;;31.73;15.68;;;;;;;-7.89;100.00;101567.70;1696666;83;27336;-79
2021/12/28 03:36:19;;;;;;;28.02;15.90;;;;;;;-7.89;100.00;101571.92;1693363;83;21151;-78
2021/12/28 03:38:47;;;;;;;25.43;16.15;;;;;;;-7.91;100.00;101565.56;1691204;83;21077;-84
2021/12/28 03:41:18;;;;;;;28.20;16.05;;;;;;;-7.92;100.00;101562.19;1693046;83;21089;-84
2021/12/28 03:43:50;;;;;;;31.65;16.02;;;;;;;-7.90;100.00;101559.67;1674345;83;21226;-78
2021/12/28 03:46:18;;;;;;;29.72;16.35;;;;;;;-7.90;100.00;101554.63;1695136;83;21040;-78
2021/12/28 03:48:46;;;;;;;27.87;16.97;;;;;;;-7.90;100.00;101554.63;1689671;84;21998;-78
2021/12/28 03:51:13;;;;;;;30.32;16.85;;;;;;;-7.89;100.00;101554.23;1669856;84;21087;-78
2021/12/28 03:53:41;;;;;;;29.55;15.80;;;;;;;-7.90;100.00;101547.03;1691409;83;21441;-78
2021/12/28 03:56:10;;;;;;;32.80;18.12;;;;;;;-7.91;100.00;101541.53;1689254;84;21731;-84
2021/12/28 03:58:41;;;;;;;28.87;16.60;;;;;;;-7.92;100.00;101541.96;1659377;85;21125;-77
2021/12/28 04:01:10;;;;;;;;;;;;;;;-7.90;100.00;101535.66;1668923;85;21169;-79
2021/12/28 04:03:37;;;;;;;27.80;16.57;;;;;;;-7.89;100.00;101531.47;1642147;85;20158;-82
2021/12/28 04:06:08;;;;;;;35.03;18.02;;;;;;;-7.89;100.00;101531.04;1638257;85;21129;-85
2021/12/28 04:08:33;;;;;;;30.82;17.23;;;;;;;-7.88;100.00;101526.82;1659688;85;21152;-80
2021/12/28 04:11:14;;;;;;;30.37;18.10;;;;;;;-7.89;100.00;101524.72;1643901;86;21076;-78
2021/12/28 04:13:29;;;;;;;35.73;19.62;;;;;;;-7.88;100.00;101524.30;1656706;84;21049;-81
2021/12/28 04:15:56;;;;;;;29.48;17.10;;;;;;;-7.89;100.00;101523.45;1659601;85;21080;-78
2021/12/28 04:18:24;;;;;;;34.35;16.55;;;;;;;-7.90;100.00;101515.86;1658623;84;21735;-79
2021/12/28 04:20:50;;;;;;;32.53;17.87;;;;;;;-7.92;100.00;101509.09;1630631;85;21065;-79
2021/12/28 04:23:17;;;;;;;28.17;16.02;;;;;;;-7.92;100.00;101519.20;1660770;85;21192;-78
2021/12/28 04:25:44;;;;;;;28.92;15.38;;;;;;;-7.91;100.00;101511.19;1654440;85;21087;-79
2021/12/28 04:28:13;;;;;;;30.48;16.65;;;;;;;-7.92;100.00;101517.94;1662002;84;21018;-77
2021/12/28 04:30:40;;;;;;;28.05;15.85;;;;;;;-7.93;100.00;101510.34;1671396;83;21049;-78
2021/12/28 04:33:08;;;;;;;30.57;16.42;;;;;;;-7.93;100.00;101511.17;1690729;84;21542;-81
2021/12/28 04:35:35;;;;;;;30.30;16.10;;;;;;;-7.93;100.00;101514.97;1668370;84;21786;-78
2021/12/28 04:38:02;;;;;;;27.85;15.00;;;;;;;-7.91;100.00;101516.25;1641592;83;21762;-78
2021/12/28 04:40:30;;;;;;;29.25;14.68;;;;;;;-7.91;100.00;101512.45;1637141;86;21577;-77
2021/12/28 04:42:57;;;;;;;31.17;17.12;;;;;;;-7.91;100.00;101518.78;1622573;86;21072;-78
2021/12/28 04:45:23;;;;;;;28.90;16.35;;;;;;;-7.92;100.00;101511.63;1644299;86;21043;-77
2021/12/28 04:47:50;;;;;;;31.33;16.62;;;;;;;-7.91;100.00;101512.45;1636953;86;21714;-77
2021/12/28 04:50:17;;;;;;;31.25;15.45;;;;;;;-7.91;100.00;101509.92;1635925;86;22132;-77
2021/12/28 04:52:45;;;;;;;32.88;16.02;;;;;;;-7.90;100.00;101510.80;1630996;86;21702;-77
2021/12/28 04:55:17;;;;;;;30.05;15.72;;;;;;;-7.94;100.00;101503.16;1637144;86;21054;-77
2021/12/28 04:57:46;;;;;;;29.37;16.30;;;;;;;-7.93;100.00;101505.28;1634038;86;21315;-83
2021/12/28 05:00:18;;;;;;;30.75;16.50;;;;;;;-7.95;100.00;101496.81;1618728;85;21084;-77
2021/12/28 05:02:47;;;;;;;29.07;15.85;;;;;;;-7.95;100.00;101500.18;1663035;84;21197;-78
2021/12/28 05:05:14;;;;;;;33.45;17.20;;;;;;;-7.95;100.00;101490.50;1668096;84;21042;-82
2021/12/28 05:07:42;;;;;;;28.62;15.72;;;;;;;-7.98;100.00;101484.98;1668129;84;21028;-77
2021/12/28 05:10:10;;;;;;;32.58;18.25;;;;;;;-7.98;100.00;101478.66;1670007;84;21118;-77
2021/12/28 05:12:39;;;;;;;36.08;17.70;;;;;;;-7.97;100.00;101475.70;1685209;84;21085;-78
2021/12/28 05:15:08;;;;;;;32.00;16.90;;;;;;;-7.99;100.00;101474.43;1677653;84;21927;-77
2021/12/28 05:17:35;;;;;;;30.70;16.95;;;;;;;-8.00;100.00;101472.73;1684450;84;21106;-77
2021/12/28 05:20:05;;;;;;;28.52;15.90;;;;;;;-8.01;100.00;101472.28;1685384;83;21034;-80
2021/12/28 05:22:34;;;;;;;34.15;18.12;;;;;;;-8.02;100.00;101468.48;1683672;83;22074;-79
2021/12/28 05:25:01;;;;;;;33.02;16.95;;;;;;;-8.02;100.00;101465.95;1622099;84;21127;-77
2021/12/28 05:27:28;;;;;;;33.75;17.48;;;;;;;-8.02;100.00;101459.20;1687563;84;21581;-77
2021/12/28 05:29:55;;;;;;;35.40;17.82;;;;;;;-8.02;100.00;101462.16;1690742;83;21129;-78
2021/12/28 05:32:23;;;;;;;35.10;17.52;;;;;;;-8.03;100.00;101464.24;1689352;83;21041;-78
2021/12/28 05:34:50;;;;;;;29.10;16.37;;;;;;;-8.07;100.00;101458.30;1685630;83;21053;-82
2021/12/28 05:37:17;;;;;;;36.25;17.98;;;;;;;-8.08;100.00;101460.37;1666588;84;21090;-82
2021/12/28 05:39:44;;;;;;;32.42;17.27;;;;;;;-8.11;100.00;101448.94;1688730;84;21158;-83
2021/12/28 05:42:11;;;;;;;32.50;17.57;;;;;;;-8.11;100.00;101451.47;1679433;83;21547;-81
2021/12/28 05:44:38;;;;;;;35.35;18.25;;;;;;;-8.12;100.00;101450.64;1652983;84;21070;-81
2021/12/28 05:47:05;;;;;;;35.45;18.17;;;;;;;-8.15;100.00;101437.94;1677812;84;21748;-78
2021/12/28 05:49:33;;;;;;;39.38;19.32;;;;;;;-8.15;100.00;101445.52;1686071;84;21058;-81
2021/12/28 05:52:00;;;;;;;38.33;20.25;;;;;;;-8.17;100.00;101442.53;1681276;84;21143;-80
2021/12/28 05:54:27;;;;;;;38.50;18.98;;;;;;;-8.18;100.00;101439.57;1690004;83;21108;-81
2021/12/28 05:56:54;;;;;;;40.43;20.23;;;;;;;-8.21;100.00;101438.28;1684882;84;21093;-77
2021/12/28 05:59:21;;;;;;;39.50;20.27;;;;;;;-8.23;100.00;101434.44;1689935;83;21808;-79
2021/12/28 06:01:48;;;;;;;37.65;18.17;;;;;;;-8.24;100.00;101436.53;1677997;84;21061;-78
2021/12/28 06:04:16;;;;;;;38.45;19.15;;;;;;;-8.27;100.00;101444.08;1699599;82;21113;-77
2021/12/28 06:06:43;;;;;;;38.45;18.15;;;;;;;-8.31;100.00;101434.73;1665071;84;21218;-77
2021/12/28 06:09:11;;;;;;;40.58;18.23;;;;;;;-8.32;100.00;101432.63;1632277;86;21076;-77
2021/12/28 06:11:38;;;;;;;42.62;19.42;;;;;;;-8.33;100.00;101427.14;1659791;85;21018;-77
2021/12/28 06:14:05;;;;;;;37.70;17.65;;;;;;;-8.34;100.00;101426.69;1657591;85;21604;-77
2021/12/28 06:16:34;;;;;;;41.28;18.45;;;;;;;-8.33;100.00;101427.56;1669585;84;21223;-76
2021/12/28 06:19:04;;;;;;;36.40;17.02;;;;;;;-8.33;100.00;101430.09;1636091;86;21309;-78
2021/12/28 06:21:31;;;;;;;37.70;17.82;;;;;;;-8.33;100.00;101427.14;1648956;85;21128;-77
2021/12/28 06:24:00;;;;;;;33.00;16.48;;;;;;;-8.33;100.00;101432.19;1648352;85;21204;-82
2021/12/28 06:26:31;;;;;;;33.30;16.37;;;;;;;-8.32;100.00;101431.38;1649966;85;21053;-77
2021/12/28 06:28:59;;;;;;;37.15;17.12;;;;;;;-8.29;100.00;101431.40;1642610;85;22178;-78
2021/12/28 06:31:28;;;;;;;35.78;17.95;;;;;;;-8.27;100.00;101428.91;1650691;84;21113;-77
2021/12/28 06:33:57;;;;;;;33.40;17.27;;;;;;;-8.26;100.00;101430.63;1665683;84;21060;-78
2021/12/28 06:36:27;;;;;;;;;;;;;;;-8.26;100.00;101430.19;1691819;83;21053;-82
2021/12/28 06:38:54;;;;;;;33.25;16.52;;;;;;;-8.25;100.00;101428.11;1690206;84;20267;-83
2021/12/28 06:41:21;;;;;;;34.45;16.77;;;;;;;-8.25;100.00;101428.11;1700734;82;21546;-78
2021/12/28 06:43:49;;;;;;;41.18;17.20;;;;;;;-8.25;100.00;101425.98;1715497;83;21109;-78
2021/12/28 06:46:16;;;;;;;35.70;16.77;;;;;;;-8.24;100.00;101425.16;1716272;83;21013;-77
2021/12/28 06:48:44;;;;;;;38.80;17.12;;;;;;;-8.24;100.00;101420.97;1687006;82;21103;-78
2021/12/28 06:51:11;;;;;;;33.55;16.67;;;;;;;-8.23;100.00;101421.80;1661279;84;21242;-78
2021/12/28 06:53:39;;;;;;;31.05;15.90;;;;;;;-8.21;100.00;101424.38;1690864;83;21140;-78
2021/12/28 06:56:06;;;;;;;40.23;16.17;;;;;;;-8.21;100.00;101416.37;1685795;83;21088;-79
2021/12/28 06:58:34;;;;;;;39.10;17.02;;;;;;;-8.20;100.00;101417.20;1693141;83;21072;-78
2021/12/28 07:01:01;;;;;;;33.08;16.23;;;;;;;-8.19;100.00;101408.41;1691548;83;21702;-78
2021/12/28 07:03:28;;;;;;;31.87;14.70;;;;;;;-8.17;100.00;101411.78;1648193;85;21020;-77
2021/12/28 07:05:55;;;;;;;36.48;15.40;;;;;;;-8.15;100.00;101410.13;1683779;82;21066;-77
2021/12/28 07:08:24;;;;;;;32.67;15.95;;;;;;;-8.12;100.00;101408.92;1700173;82;37665;-77
2021/12/28 07:10:51;;;;;;;29.00;16.12;;;;;;;-8.11;100.00;101402.18;1681849;83;21140;-79
2021/12/28 07:13:18;;;;;;;28.87;15.90;;;;;;;-8.09;100.00;101406.42;1689007;82;21088;-77
2021/12/28 07:15:45;;;;;;;32.78;15.15;;;;;;;-8.08;100.00;101395.92;1706425;83;21101;-77
2021/12/28 07:18:13;;;;;;;28.73;14.93;;;;;;;-8.06;100.00;101398.45;1717576;82;21215;-81
2021/12/28 07:20:39;;;;;;;32.55;15.88;;;;;;;-8.05;100.00;101392.16;1716354;81;21057;-77
2021/12/28 07:23:06;;;;;;;29.37;14.07;;;;;;;-8.03;100.00;101386.70;1695942;82;21771;-78
2021/12/28 07:25:33;;;;;;;34.08;15.23;;;;;;;-8.02;100.00;101380.83;1661173;85;21512;-77
2021/12/28 07:28:01;;;;;;;28.40;15.55;;;;;;;-7.99;100.00;101371.17;1684764;84;21210;-83
2021/12/28 07:30:29;;;;;;;35.75;16.12;;;;;;;-8.00;100.00;101367.80;1710160;81;22019;-81
2021/12/28 07:32:56;;;;;;;43.73;17.48;;;;;;;-7.99;100.00;101360.66;1710055;81;21088;-81
2021/12/28 07:35:23;;;;;;;36.03;17.85;;;;;;;-8.00;100.00;101367.80;1722370;81;21052;-80
2021/12/28 07:37:50;;;;;;;37.80;16.10;;;;;;;-7.99;100.00;101362.31;1713298;83;21050;-86
2021/12/28 07:40:17;;;;;;;28.17;14.05;;;;;;;-7.99;100.00;101354.34;1713749;82;21081;-81
2021/12/28 07:42:44;;;;;;;26.17;14.78;;;;;;;-7.97;100.00;101347.59;1695006;82;21185;-85
2021/12/28 07:45:12;;;;;;;25.68;14.15;;;;;;;-7.93;100.00;101346.83;1704163;82;21132;-84
2021/12/28 07:47:41;;;;;;;27.82;14.80;;;;;;;-7.92;100.00;101343.47;1719569;81;21140;-77
2021/12/28 07:50:12;;;;;;;28.87;13.35;;;;;;;-7.91;100.00;101339.25;1719511;82;21102;-77
2021/12/28 07:52:40;;;;;;;29.87;14.60;;;;;;;-7.85;100.00;101341.02;1672453;84;21985;-77
2021/12/28 07:55:09;;;;;;;28.87;14.13;;;;;;;-7.81;100.00;101344.88;1686663;83;21550;-78
2021/12/28 07:57:37;;;;;;;24.47;13.22;;;;;;;-7.78;100.00;101347.45;1678602;83;22205;-77
2021/12/28 08:00:15;;;;;;;25.82;12.98;;;;;;;-7.75;100.00;101339.05;1695872;83;21600;-77
2021/12/28 08:02:44;;;;;;;21.23;12.73;;;;;;;-7.73;100.00;101342.84;1719720;81;21105;-78
2021/12/28 08:05:13;;;;;;;24.25;13.78;;;;;;;-7.72;100.00;101332.73;1695596;82;21367;-77
2021/12/28 08:07:42;;;;;;;21.52;12.20;;;;;;;-7.72;100.00;101317.56;1712549;82;21948;-78
2021/12/28 08:10:13;;;;;;;23.12;11.35;;;;;;;-7.71;100.00;101319.69;1709712;81;21112;-78
2021/12/28 08:12:40;;;;;;;20.60;11.43;;;;;;;-7.73;100.00;101320.08;1705335;82;21118;-78
2021/12/28 08:15:09;;;;;;;20.68;11.63;;;;;;;-7.76;100.00;101312.05;1679565;82;21041;-80
2021/12/28 08:17:36;;;;;;;22.05;11.05;;;;;;;-7.76;100.00;101303.20;1705356;82;21085;-79
2021/12/28 08:20:07;;;;;;;21.77;11.78;;;;;;;-7.73;100.00;101297.32;1713632;82;22017;-78
2021/12/28 08:22:37;;;;;;;20.88;11.70;;;;;;;-7.72;100.00;101291.00;1712079;82;21049;-77
2021/12/28 08:25:07;;;;;;;20.82;10.72;;;;;;;-7.70;100.00;101292.31;1710914;82;21133;-85
2021/12/28 08:27:35;;;;;;;21.55;12.35;;;;;;;-7.69;100.00;101282.20;1691364;81;21636;-78
2021/12/28 08:30:05;;;;;;;23.67;12.80;;;;;;;-7.68;100.00;101285.16;1708870;82;21296;-78
2021/12/28 08:32:33;;;;;;;24.10;12.85;;;;;;;-7.68;100.00;101271.25;1710958;81;21298;-79
2021/12/28 08:35:00;;;;;;;19.92;11.48;;;;;;;-7.68;100.00;101273.78;1710406;82;21117;-79
2021/12/28 08:37:27;;;;;;;23.47;11.55;;;;;;;-7.71;100.00;101276.27;1711282;82;21172;-79
2021/12/28 08:39:54;;;;;;;25.10;12.82;;;;;;;-7.75;100.00;101272.02;1690316;82;21666;-79
2021/12/28 08:42:22;;;;;;;18.87;11.57;;;;;;;-7.75;100.00;101270.76;1673621;84;21604;-80
2021/12/28 08:44:50;;;;;;;23.10;12.58;;;;;;;-7.76;100.00;101271.59;1675699;84;21129;-80
2021/12/28 08:47:22;;;;;;;21.55;11.40;;;;;;;-7.76;100.00;101265.27;1657825;84;21143;-79
2021/12/28 08:49:48;;;;;;;19.92;11.85;;;;;;;-7.75;100.00;101263.17;1642280;83;21089;-85
2021/12/28 08:52:15;;;;;;;22.60;12.60;;;;;;;-7.75;100.00;101248.00;1677259;84;21077;-80
2021/12/28 08:54:43;;;;;;;26.57;13.58;;;;;;;-7.77;100.00;101249.65;1661830;84;21127;-81
2021/12/28 08:57:10;;;;;;;26.35;14.45;;;;;;;-7.77;100.00;101262.30;1691188;83;21109;-81
2021/12/28 08:59:37;;;;;;;31.30;15.10;;;;;;;-7.79;100.00;101253.44;1678671;83;21463;-80
2021/12/28 09:02:05;;;;;;;22.42;13.18;;;;;;;-7.80;100.00;101254.66;1694100;82;21186;-82
2021/12/28 09:04:32;;;;;;;28.32;14.50;;;;;;;-7.81;100.00;101234.86;1663539;84;21047;-81
2021/12/28 09:06:59;;;;;;;25.23;13.18;;;;;;;-7.81;100.00;101227.27;1683983;84;21085;-80
2021/12/28 09:09:26;;;;;;;24.00;13.62;;;;;;;-7.80;100.00;101215.47;1635825;84;21165;-82
2021/12/28 09:11:53;;;;;;;30.43;15.50;;;;;;;-7.80;100.00;101200.30;1687485;83;21034;-85
2021/12/28 09:14:20;;;;;;;24.70;13.22;;;;;;;-7.79;100.00;101188.09;1694928;81;21520;-80
2021/12/28 09:16:47;;;;;;;23.77;12.68;;;;;;;-7.79;100.00;101180.50;1683811;83;21080;-81
2021/12/28 09:19:13;;;;;;;22.82;13.08;;;;;;;-7.79;100.00;101163.66;1701049;81;21035;-82
2021/12/28 09:21:41;;;;;;;23.62;12.90;;;;;;;-7.78;100.00;101159.04;1682588;83;21182;-84
2021/12/28 09:24:08;;;;;;;24.20;12.37;;;;;;;-7.76;100.00;101151.03;1652974;85;21179;-84
2021/12/28 09:26:35;;;;;;;23.73;13.08;;;;;;;-7.76;100.00;101137.12;1679742;83;21022;-84
2021/12/28 09:29:03;;;;;;;20.48;10.68;;;;;;;-7.72;100.00;101142.22;1671432;84;21116;-86
2021/12/28 09:31:30;;;;;;;22.70;11.53;;;;;;;-7.69;100.00;101137.20;1675976;82;21210;-87
2021/12/28 09:33:58;;;;;;;24.02;12.35;;;;;;;-7.67;100.00;101126.25;1700680;81;21155;-89
2021/12/28 09:36:25;;;;;;;22.15;12.55;;;;;;;-7.65;100.00;101117.40;1676330;83;21148;-91
2021/12/28 09:38:53;;;;;;;26.05;12.73;;;;;;;-7.62;100.00;101114.91;1678887;84;21038;-89
2021/12/28 09:41:20;;;;;;;20.55;11.38;;;;;;;-7.59;100.00;101117.88;1675029;83;21034;-88
2021/12/28 09:43:47;;;;;;;17.35;10.15;;;;;;;-7.57;100.00;101130.95;1678754;83;21988;-89
2021/12/28 09:46:16;;;;;;;19.35;10.18;;;;;;;-7.52;100.00;101123.41;1663079;84;22089;-88
2021/12/28 09:48:43;;;;;;;19.10;9.50;;;;;;;-7.50;100.00;101125.54;1660293;84;21153;-90
2021/12/28 09:51:10;;;;;;;17.27;8.75;;;;;;;-7.48;100.00;101122.18;1660335;85;21552;-89
2021/12/28 09:53:38;;;;;;;15.88;9.60;;;;;;;-7.45;100.00;101137.80;1633431;86;21898;-89
2021/12/28 09:56:07;;;;;;;15.80;8.48;;;;;;;-7.42;100.00;101122.65;1662112;84;21081;-91
2021/12/28 09:58:37;;;;;;;16.93;9.05;;;;;;;-7.40;100.00;101109.56;1662133;86;21116;-88
2021/12/28 10:01:07;;;;;;;18.40;9.45;;;;;;;-7.37;100.00;101110.86;1662202;84;21030;-89
2021/12/28 10:03:35;;;;;;;15.75;8.78;;;;;;;-7.34;100.00;101115.09;1656726;83;21543;-88
2021/12/28 10:06:17;;;;;;;24.80;11.25;;;;;;;-7.31;100.00;101108.80;1635054;86;21151;-89
2021/12/28 10:08:44;;;;;;;21.97;10.15;;;;;;;-7.27;100.00;101100.80;1624251;86;21136;-88
2021/12/28 10:11:11;;;;;;;17.40;9.90;;;;;;;-7.27;100.00;101097.02;1635732;85;21130;-91
2021/12/28 10:13:38;;;;;;;18.35;9.80;;;;;;;-7.27;100.00;101118.52;1660688;84;21049;-90
2021/12/28 10:16:06;;;;;;;16.10;9.48;;;;;;;-7.27;100.00;101132.45;1672907;83;21052;-87
2021/12/28 10:18:33;;;;;;;18.40;8.98;;;;;;;-7.27;100.00;101133.28;1663198;84;21964;-90
2021/12/28 10:21:03;;;;;;;16.60;10.20;;;;;;;-7.29;100.00;101125.69;1693031;83;21622;-88
2021/12/28 10:23:33;;;;;;;18.12;9.70;;;;;;;-7.30;100.00;101118.92;1686883;83;21138;-90
2021/12/28 10:26:07;;;;;;;19.50;10.58;;;;;;;-7.31;100.00;101114.70;1639325;85;26966;-88
2021/12/28 10:28:38;;;;;;;19.45;10.90;;;;;;;-7.32;100.00;101109.20;1619909;84;21116;-89
2021/12/28 10:31:10;;;;;;;19.98;11.05;;;;;;;-7.33;100.00;101088.95;1676501;84;21389;-88
2021/12/28 10:33:39;;;;;;;16.23;9.65;;;;;;;-7.33;100.00;101088.95;1648209;84;21053;-89
2021/12/28 10:36:13;;;;;;;18.45;9.90;;;;;;;-7.36;100.00;101068.68;1685442;83;21819;-88
2021/12/28 10:38:50;;;;;;;18.50;11.10;;;;;;;-7.38;100.00;101066.15;1690033;83;21037;-89
2021/12/28 10:41:21;;;;;;;17.95;9.55;;;;;;;-7.41;100.00;101062.32;1685381;84;21097;-88
2021/12/28 10:43:55;;;;;;;19.07;10.25;;;;;;;-7.44;100.00;101056.00;1690969;83;21097;-89
2021/12/28 10:46:25;;;;;;;20.75;9.88;;;;;;;-7.46;100.00;101054.73;1652349;84;21114;-88
2021/12/28 10:48:59;;;;;;;23.57;10.30;;;;;;;-7.50;100.00;101049.20;1654621;84;21163;-89
2021/12/28 10:51:34;;;;;;;19.82;10.35;;;;;;;-7.51;100.00;101048.77;1659645;85;21085;-87
2021/12/28 10:54:12;;;;;;;18.02;10.25;;;;;;;-7.50;100.00;101069.88;1646907;85;21146;-92
2021/12/28 10:56:54;;;;;;;16.80;8.88;;;;;;;-7.49;100.00;101080.00;1665743;84;21683;-89
2021/12/28 10:59:33;;;;;;;18.32;9.90;;;;;;;-7.46;100.00;101066.12;1663704;84;21091;-94
2021/12/28 11:02:00;;;;;;;18.00;9.53;;;;;;;-7.42;100.00;101045.47;1636172;85;22056;-91
2021/12/28 11:04:37;;;;;;;15.93;8.93;;;;;;;-7.43;100.00;101026.06;1662063;84;21010;-90
2021/12/28 11:07:08;;;;;;;16.45;9.35;;;;;;;-7.44;100.00;101009.19;1641045;86;21138;-94
2021/12/28 11:09:39;;;;;;;16.55;9.33;;;;;;;-7.45;100.00;100999.47;1678675;84;21822;-91